Time;durP1;ratioP1;P1;durP2;ratioP2;P2;SDS_P1;SDS_P2;PMS_P1;PMS_P2;Temp;Humidity;BMP_temperature;BMP_pressure;BME280_temperature;BME280_humidity;BME280_pressure;Samples;Min_cycle;Max_cycle;Signal;HPM_P1;HPM_P2
2021/05/06 00:34:23;;;;;;;1.03;1.03;;;5.60;99.90;;;;;;5055725;28;20221;-86
2021/05/06 00:36:49;;;;;;;2.43;0.50;;;5.60;99.90;;;;;;5040210;28;20303;-90
2021/05/06 00:39:19;;;;;;;0.30;0.30;;;5.70;99.90;;;;;;5057372;28;20307;-88
2021/05/06 00:42:51;;;;;;;8.80;0.70;;;5.70;99.90;;;;;;5077987;28;20227;-85
2021/05/06 01:06:28;;;;;;;0.40;0.37;;;5.50;99.90;;;;;;5057790;28;20196;-84
2021/05/06 01:09:00;;;;;;;3.63;0.73;;;5.50;99.90;;;;;;5073916;28;20189;-85
2021/05/06 01:13:52;;;;;;;0.60;0.60;;;5.50;99.90;;;;;;5066200;28;20236;-86
2021/05/06 01:16:18;;;;;;;0.70;0.70;;;5.60;99.90;;;;;;5062661;28;20216;-85
2021/05/06 01:18:43;;;;;;;0.83;0.67;;;5.50;99.90;;;;;;5046032;28;20695;-86
2021/05/06 01:21:09;;;;;;;0.40;0.40;;;5.50;99.90;;;;;;5065876;28;20189;-85
2021/05/06 01:23:38;;;;;;;1.33;0.63;;;5.50;99.90;;;;;;5066116;28;20285;-85
2021/05/06 01:26:14;;;;;;;0.97;0.97;;;5.40;99.90;;;;;;5077711;28;20212;-84
2021/05/06 01:28:44;;;;;;;0.30;0.30;;;5.40;99.90;;;;;;5071744;28;20306;-84
2021/05/06 01:31:22;;;;;;;6.23;0.80;;;5.40;99.90;;;;;;5078336;28;20681;-86
2021/05/06 01:36:37;;;;;;;0.40;0.40;;;5.40;99.90;;;;;;5068325;28;20276;-87
2021/05/06 01:47:07;;;;;;;0.50;0.50;;;5.30;99.90;;;;;;5068244;28;20245;-84
2021/05/06 02:00:24;;;;;;;0.40;0.40;;;5.20;99.90;;;;;;5056690;28;20646;-87
2021/05/06 02:02:50;;;;;;;0.60;0.60;;;5.20;99.90;;;;;;5057026;28;20657;-87
2021/05/06 02:05:16;;;;;;;0.20;0.20;;;5.20;99.90;;;;;;5070617;28;20217;-87
2021/05/06 02:07:45;;;;;;;6.20;1.13;;;5.30;99.90;;;;;;5061557;28;20677;-87
2021/05/06 02:10:13;;;;;;;2.83;1.43;;;5.20;99.90;;;;;;5063967;28;20229;-85
2021/05/06 02:12:39;;;;;;;0.30;0.30;;;5.20;99.90;;;;;;5074830;28;20256;-84
2021/05/06 02:15:23;;;;;;;1.50;0.40;;;5.20;99.90;;;;;;5059944;28;20766;-87
2021/05/06 02:17:49;;;;;;;0.93;0.83;;;5.10;99.90;;;;;;5091065;28;20235;-87
2021/05/06 02:20:16;;;;;;;0.57;0.57;;;5.10;99.90;;;;;;5048698;28;20213;-86
2021/05/06 02:22:45;;;;;;;0.40;0.40;;;5.10;99.90;;;;;;5039646;28;20229;-87
2021/05/06 02:25:11;;;;;;;0.20;0.20;;;5.10;99.90;;;;;;5062146;28;20225;-87
2021/05/06 02:27:37;;;;;;;0.30;0.30;;;5.10;99.90;;;;;;5040550;28;20224;-87
2021/05/06 02:30:04;;;;;;;0.47;0.47;;;5.00;99.90;;;;;;5047984;28;20638;-88
2021/05/06 02:32:30;;;;;;;0.37;0.27;;;5.00;99.90;;;;;;5075828;28;20221;-89
2021/05/06 02:34:56;;;;;;;6.40;1.27;;;5.00;99.90;;;;;;5036179;28;20258;-87
2021/05/06 02:37:22;;;;;;;0.50;0.50;;;5.10;99.90;;;;;;5039608;28;20217;-87
2021/05/06 02:39:48;;;;;;;0.57;0.57;;;5.10;99.90;;;;;;5068624;28;20218;-84
2021/05/06 02:42:14;;;;;;;4.03;0.93;;;5.10;99.90;;;;;;5040111;28;20189;-85
2021/05/06 02:44:41;;;;;;;0.40;0.40;;;5.10;99.90;;;;;;5052831;28;20248;-85
2021/05/06 02:47:07;;;;;;;0.60;0.60;;;5.10;99.90;;;;;;5053436;28;20772;-85
2021/05/06 02:49:33;;;;;;;0.43;0.43;;;5.20;99.90;;;;;;5054454;28;20252;-84
2021/05/06 02:52:05;;;;;;;2.57;0.80;;;5.20;99.90;;;;;;5054629;28;20236;-85
2021/05/06 02:54:36;;;;;;;0.37;0.37;;;5.10;99.90;;;;;;5071952;28;20735;-84
2021/05/06 02:57:10;;;;;;;1.33;0.60;;;5.20;99.90;;;;;;5067876;28;20609;-84
2021/05/06 03:05:06;;;;;;;0.90;0.63;;;5.10;99.90;;;;;;5053754;28;20248;-87
2021/05/06 03:07:33;;;;;;;0.53;0.53;;;5.10;99.90;;;;;;5047636;28;20305;-87
2021/05/06 03:10:12;;;;;;;0.90;0.73;;;5.00;99.90;;;;;;5039788;28;20695;-87
2021/05/06 03:22:59;;;;;;;1.73;0.70;;;4.90;99.90;;;;;;5068846;28;20570;-87
2021/05/06 03:25:28;;;;;;;6.33;1.23;;;4.90;99.90;;;;;;5055801;28;20210;-86
2021/05/06 03:27:58;;;;;;;0.20;0.20;;;4.80;99.90;;;;;;5070307;28;20551;-86
2021/05/06 03:30:38;;;;;;;0.47;0.47;;;4.90;99.90;;;;;;5053274;28;20713;-86
2021/05/06 03:44:28;;;;;;;0.50;0.50;;;4.80;99.90;;;;;;5040990;28;20621;-85
2021/05/06 04:16:47;;;;;;;9.83;1.37;;;4.80;99.90;;;;;;5064825;28;20669;-86
2021/05/06 04:21:43;;;;;;;0.30;0.30;;;4.80;99.90;;;;;;5058892;28;20213;-89
2021/05/06 04:37:36;;;;;;;0.30;0.30;;;5.00;99.90;;;;;;5043414;28;20213;-85
2021/05/06 04:56:11;;;;;;;1.03;0.83;;;5.50;99.90;;;;;;5060422;28;20221;-83
2021/05/06 05:03:55;;;;;;;0.40;0.40;;;5.70;99.90;;;;;;5055411;28;20244;-85
2021/05/06 05:06:24;;;;;;;0.80;0.80;;;5.80;99.90;;;;;;5046540;28;20182;-86
2021/05/06 05:14:15;;;;;;;1.10;0.80;;;6.20;99.90;;;;;;5056410;28;20261;-87
2021/05/06 05:24:57;;;;;;;0.40;0.40;;;11.40;99.90;;;;;;5076506;28;20311;-84
2021/05/06 05:27:23;;;;;;;0.60;0.60;;;11.80;99.90;;;;;;5066056;28;20237;-87
2021/05/06 05:29:53;;;;;;;0.30;0.30;;;12.80;99.90;;;;;;5056514;28;20280;-87
2021/05/06 05:32:19;;;;;;;1.70;0.93;;;13.90;99.90;;;;;;5063865;28;20709;-86
2021/05/06 05:34:52;;;;;;;7.27;1.23;;;14.30;99.90;;;;;;5063842;28;20217;-86
2021/05/06 05:37:21;;;;;;;3.93;1.77;;;15.10;99.90;;;;;;5055667;28;20213;-83
2021/05/06 05:55:58;;;;;;;4.17;1.57;;;17.00;99.90;;;;;;5065297;28;20727;-84
2021/05/06 05:58:24;;;;;;;2.63;0.67;;;16.80;99.90;;;;;;5065380;28;20209;-84
2021/05/06 06:00:50;;;;;;;3.43;0.70;;;16.60;99.90;;;;;;5065201;28;20618;-84
2021/05/06 06:03:16;;;;;;;0.60;0.50;;;17.80;99.90;;;;;;5084729;28;20274;-86
2021/05/06 06:05:42;;;;;;;0.80;0.30;;;17.90;99.90;;;;;;5057080;28;20228;-87
2021/05/06 06:08:08;;;;;;;0.53;0.53;;;17.70;99.90;;;;;;5062852;28;20221;-85
2021/05/06 06:10:34;;;;;;;2.30;0.40;;;16.80;99.90;;;;;;5062753;28;20219;-85
2021/05/06 06:12:59;;;;;;;0.80;0.73;;;16.60;99.90;;;;;;5038017;28;20230;-85
2021/05/06 06:15:43;;;;;;;0.50;0.50;;;16.70;99.90;;;;;;5069781;28;20588;-84
2021/05/06 06:18:20;;;;;;;1.27;0.93;;;16.40;99.90;;;;;;5044868;28;20189;-86
2021/05/06 06:20:50;;;;;;;1.07;1.00;;;16.10;99.90;;;;;;5038241;28;20349;-84
2021/05/06 06:23:16;;;;;;;1.23;0.70;;;16.10;99.90;;;;;;5038678;28;20218;-83
2021/05/06 06:25:42;;;;;;;4.40;0.70;;;15.30;99.90;;;;;;5079234;28;20213;-83
2021/05/06 06:28:12;;;;;;;2.43;0.50;;;15.00;99.90;;;;;;5046495;28;20964;-85
2021/05/06 06:30:39;;;;;;;1.70;0.40;;;15.00;99.90;;;;;;5055505;28;20309;-85
2021/05/06 06:33:05;;;;;;;1.63;0.90;;;15.60;99.90;;;;;;5063275;28;20248;-84
2021/05/06 06:35:31;;;;;;;1.37;0.60;;;15.50;99.90;;;;;;5053375;28;20295;-86
2021/05/06 06:37:56;;;;;;;1.77;0.50;;;15.70;99.90;;;;;;5065235;28;20229;-83
2021/05/06 06:40:22;;;;;;;0.30;0.30;;;16.10;99.90;;;;;;5054136;28;20282;-84
2021/05/06 06:42:48;;;;;;;0.50;0.50;;;14.80;99.90;;;;;;5061258;28;20222;-86
2021/05/06 06:45:14;;;;;;;0.97;0.30;;;14.40;99.90;;;;;;5030215;28;20197;-87
2021/05/06 06:47:40;;;;;;;1.43;0.43;;;14.30;99.90;;;;;;5053503;28;20218;-84
2021/05/06 06:50:06;;;;;;;0.37;0.37;;;12.40;99.90;;;;;;5059049;28;20255;-84
2021/05/06 06:52:31;;;;;;;1.07;0.70;;;11.60;99.90;;;;;;5060900;28;20229;-84
2021/05/06 06:54:57;;;;;;;0.87;0.67;;;11.10;99.90;;;;;;5036667;28;20224;-84
2021/05/06 06:57:23;;;;;;;1.43;0.57;;;10.80;99.90;;;;;;5046399;28;20188;-86
2021/05/06 06:59:48;;;;;;;3.03;0.50;;;10.70;99.90;;;;;;5075993;28;20203;-86
2021/05/06 07:02:14;;;;;;;1.80;0.70;;;12.30;99.90;;;;;;5060244;28;20204;-86
2021/05/06 07:04:40;;;;;;;0.93;0.53;;;13.50;99.90;;;;;;5056602;28;21135;-87
2021/05/06 07:07:06;;;;;;;4.20;0.60;;;13.90;99.90;;;;;;5057088;28;20217;-84
2021/05/06 07:09:32;;;;;;;0.27;0.27;;;13.40;99.90;;;;;;5065208;28;20548;-86
2021/05/06 07:11:58;;;;;;;0.40;0.40;;;13.30;99.90;;;;;;5060709;28;20173;-87
2021/05/06 07:14:24;;;;;;;3.97;0.80;;;13.90;99.90;;;;;;5073901;28;20249;-87
2021/05/06 07:16:50;;;;;;;0.53;0.53;;;14.90;99.90;;;;;;5045980;28;20631;-87
2021/05/06 07:19:15;;;;;;;5.43;0.50;;;15.30;99.90;;;;;;5069002;28;20274;-84
2021/05/06 07:21:41;;;;;;;0.80;0.80;;;16.30;99.90;;;;;;5064526;28;20221;-85
2021/05/06 07:24:08;;;;;;;2.33;0.77;;;15.60;99.90;;;;;;5082308;28;20242;-85
2021/05/06 07:26:34;;;;;;;0.70;0.50;;;14.30;99.90;;;;;;5057933;28;20217;-86
2021/05/06 07:28:59;;;;;;;2.77;0.50;;;13.30;99.90;;;;;;5047598;28;20213;-85
2021/05/06 07:31:25;;;;;;;0.93;0.50;;;12.30;99.90;;;;;;5056340;28;20213;-84
2021/05/06 07:33:51;;;;;;;0.33;0.33;;;11.50;99.90;;;;;;5054895;28;20220;-85
2021/05/06 07:36:18;;;;;;;4.00;0.43;;;12.00;99.90;;;;;;5040518;28;20186;-87
2021/05/06 07:38:48;;;;;;;0.77;0.77;;;13.20;99.90;;;;;;5061446;28;20218;-84
2021/05/06 07:41:15;;;;;;;2.13;1.13;;;14.50;99.90;;;;;;5061287;28;20225;-84
2021/05/06 07:43:43;;;;;;;0.33;0.33;;;14.80;99.90;;;;;;5042224;28;20213;-84
2021/05/06 07:46:10;;;;;;;7.00;1.37;;;15.70;99.90;;;;;;5052081;28;20275;-85
2021/05/06 07:48:37;;;;;;;1.87;0.50;;;15.60;99.90;;;;;;5068245;28;20284;-86
2021/05/06 07:51:02;;;;;;;1.70;0.97;;;16.30;99.90;;;;;;5064007;28;20201;-84
2021/05/06 07:53:46;;;;;;;0.33;0.33;;;15.30;99.90;;;;;;5039820;28;20696;-87
2021/05/06 07:56:12;;;;;;;1.03;0.60;;;17.00;99.90;;;;;;5057033;28;20213;-85
2021/05/06 07:58:38;;;;;;;1.60;0.70;;;16.40;99.90;;;;;;5043333;28;20224;-84
2021/05/06 08:01:04;;;;;;;0.33;0.33;;;17.20;99.90;;;;;;5042978;28;20224;-84
2021/05/06 08:03:30;;;;;;;0.40;0.40;;;16.10;99.90;;;;;;5074662;28;20199;-85
2021/05/06 08:05:56;;;;;;;0.30;0.30;;;17.20;99.90;;;;;;5083361;28;20281;-85
2021/05/06 08:08:24;;;;;;;0.97;0.97;;;17.80;99.20;;;;;;5053641;28;20221;-84
2021/05/06 08:10:50;;;;;;;0.30;0.30;;;15.90;99.40;;;;;;5043963;28;20599;-85
2021/05/06 08:13:16;;;;;;;1.27;0.87;;;13.70;99.90;;;;;;5062426;28;20237;-87
2021/05/06 08:15:41;;;;;;;2.73;0.90;;;11.80;99.90;;;;;;5061947;28;20259;-87
2021/05/06 08:18:07;;;;;;;0.50;0.50;;;11.70;99.90;;;;;;5063159;28;20229;-85
2021/05/06 08:20:33;;;;;;;1.40;0.80;;;12.60;99.90;;;;;;5045641;28;20222;-85
2021/05/06 08:22:59;;;;;;;2.97;0.50;;;13.10;99.90;;;;;;5067894;28;20680;-84
2021/05/06 08:25:26;;;;;;;0.63;0.63;;;13.40;99.90;;;;;;5056265;28;20217;-87
2021/05/06 08:27:52;;;;;;;0.93;0.93;;;14.70;99.90;;;;;;5058280;28;20221;-86
2021/05/06 08:30:18;;;;;;;0.77;0.50;;;16.50;99.90;;;;;;5057655;28;21349;-86
2021/05/06 08:32:44;;;;;;;1.97;0.80;;;17.70;99.90;;;;;;5066449;28;20577;-86
2021/05/06 08:35:10;;;;;;;2.40;0.80;;;19.40;99.90;;;;;;5077536;28;20216;-85
2021/05/06 08:37:37;;;;;;;0.53;0.53;;;19.70;99.90;;;;;;5060569;28;20259;-86
2021/05/06 08:40:05;;;;;;;0.50;0.50;;;18.80;99.10;;;;;;5069867;28;20210;-86
2021/05/06 08:42:32;;;;;;;0.60;0.60;;;19.20;99.90;;;;;;5064977;28;20193;-85
2021/05/06 08:44:58;;;;;;;0.50;0.50;;;18.90;99.90;;;;;;5065704;28;20198;-87
2021/05/06 08:47:24;;;;;;;3.70;0.80;;;19.50;98.10;;;;;;5047772;28;20216;-84
2021/05/06 08:49:50;;;;;;;1.57;0.80;;;20.70;99.90;;;;;;5050851;28;20212;-88
2021/05/06 08:52:21;;;;;;;2.50;0.87;;;20.70;98.00;;;;;;5072625;28;20300;-87
2021/05/06 08:54:51;;;;;;;2.57;1.00;;;20.80;97.30;;;;;;5057137;28;20213;-86
2021/05/06 08:57:23;;;;;;;1.10;0.67;;;20.50;99.10;;;;;;5057586;28;20245;-87
2021/05/06 08:59:50;;;;;;;1.10;0.80;;;19.60;97.20;;;;;;5065513;28;20649;-86
2021/05/06 09:02:16;;;;;;;1.03;1.03;;;20.20;97.60;;;;;;5060852;28;20811;-86
2021/05/06 09:04:42;;;;;;;1.33;1.00;;;20.00;97.60;;;;;;5067492;28;20237;-87
2021/05/06 09:07:10;;;;;;;3.47;0.87;;;19.90;97.80;;;;;;5068131;28;20290;-85
2021/05/06 09:09:36;;;;;;;2.17;1.07;;;19.50;98.70;;;;;;5057716;28;20544;-86
2021/05/06 09:12:08;;;;;;;3.03;1.13;;;19.30;97.70;;;;;;5075005;28;21754;-86
2021/05/06 09:14:37;;;;;;;2.07;0.90;;;17.00;98.80;;;;;;5058495;28;20227;-87
2021/05/06 09:17:05;;;;;;;2.70;0.70;;;15.30;99.90;;;;;;5072189;28;20216;-87
2021/05/06 09:19:30;;;;;;;0.97;0.70;;;14.70;99.90;;;;;;5094053;28;20818;-86
2021/05/06 09:21:57;;;;;;;1.50;0.90;;;14.50;99.90;;;;;;5076455;28;20362;-86
2021/05/06 09:24:27;;;;;;;0.90;0.80;;;14.90;99.90;;;;;;5059778;28;20549;-87
2021/05/06 09:26:58;;;;;;;0.87;0.60;;;16.60;99.90;;;;;;5079131;28;20275;-86
2021/05/06 09:29:41;;;;;;;0.70;0.53;;;17.40;99.90;;;;;;5077009;28;20224;-87
2021/05/06 09:32:11;;;;;;;2.77;0.50;;;16.60;99.90;;;;;;5066512;28;20232;-89
2021/05/06 09:34:39;;;;;;;0.87;0.63;;;14.80;99.90;;;;;;5088299;28;20224;-86
2021/05/06 09:37:08;;;;;;;6.33;0.70;;;13.70;99.90;;;;;;5081547;28;20221;-86
2021/05/06 09:39:40;;;;;;;0.50;0.40;;;12.70;99.90;;;;;;5066178;28;20213;-87
2021/05/06 09:42:10;;;;;;;5.13;1.03;;;11.60;99.90;;;;;;5084795;28;20582;-86
2021/05/06 09:45:03;;;;;;;1.57;1.47;;;11.10;99.90;;;;;;5076295;28;20278;-87
2021/05/06 09:47:29;;;;;;;0.43;0.40;;;10.90;99.90;;;;;;5084744;28;20217;-84
2021/05/06 09:49:54;;;;;;;2.67;0.83;;;10.60;99.90;;;;;;5042192;28;20625;-86
2021/05/06 09:52:20;;;;;;;2.67;0.60;;;10.60;99.90;;;;;;5049298;28;21183;-86
2021/05/06 09:54:54;;;;;;;4.47;0.87;;;10.80;99.90;;;;;;5066039;28;20575;-87
2021/05/06 09:57:31;;;;;;;1.77;0.80;;;11.70;99.90;;;;;;5058677;28;20186;-87
2021/05/06 10:00:35;;;;;;;3.80;0.60;;;12.00;99.90;;;;;;5055455;28;20193;-88
2021/05/06 10:03:12;;;;;;;1.90;0.80;;;11.40;99.90;;;;;;4986658;28;20269;-87
2021/05/06 10:05:40;;;;;;;0.70;0.70;;;10.90;99.90;;;;;;5054679;28;20681;-86
2021/05/06 10:08:06;;;;;;;4.40;1.00;;;10.60;99.90;;;;;;5064435;28;20278;-89
2021/05/06 10:10:32;;;;;;;1.83;0.73;;;10.60;99.90;;;;;;5065549;28;20218;-85
2021/05/06 10:12:58;;;;;;;0.93;0.90;;;10.50;99.90;;;;;;5071639;28;20237;-87
2021/05/06 10:15:25;;;;;;;1.33;0.63;;;10.20;99.90;;;;;;5037627;28;20237;-88
2021/05/06 10:17:51;;;;;;;1.23;1.00;;;10.20;99.90;;;;;;5039631;28;20181;-86
2021/05/06 10:20:17;;;;;;;2.67;1.63;;;11.10;99.90;;;;;;5041444;28;20213;-87
2021/05/06 10:22:45;;;;;;;1.30;0.97;;;12.70;99.90;;;;;;5060102;28;20206;-89
2021/05/06 10:25:11;;;;;;;1.87;1.20;;;13.20;99.90;;;;;;5054716;28;20918;-86
2021/05/06 10:27:40;;;;;;;0.27;0.27;;;13.00;99.90;;;;;;5057490;28;20223;-86
2021/05/06 10:30:06;;;;;;;3.73;1.30;;;12.00;99.90;;;;;;5093661;28;20176;-87
2021/05/06 10:32:34;;;;;;;0.83;0.83;;;11.20;99.90;;;;;;5089742;28;20217;-88
2021/05/06 10:35:14;;;;;;;1.17;1.00;;;10.60;99.90;;;;;;5072107;28;20218;-88
2021/05/06 10:37:44;;;;;;;0.50;0.50;;;10.40;99.90;;;;;;5070434;28;20296;-88
2021/05/06 10:40:34;;;;;;;0.90;0.87;;;10.20;99.90;;;;;;5059116;28;20689;-92
2021/05/06 10:43:23;;;;;;;0.77;0.77;;;10.10;99.90;;;;;;5055751;28;20222;-89
2021/05/06 10:45:58;;;;;;;1.00;0.80;;;10.40;99.90;;;;;;5058070;28;20338;-91
2021/05/06 10:48:44;;;;;;;0.57;0.57;;;10.60;99.90;;;;;;5073159;28;20173;-89
2021/05/06 10:51:39;;;;;;;0.63;0.63;;;10.80;99.90;;;;;;5063165;28;20546;-87
2021/05/06 10:54:27;;;;;;;0.57;0.40;;;11.00;99.90;;;;;;5053858;28;20302;-87
2021/05/06 10:56:58;;;;;;;0.20;0.20;;;10.60;99.90;;;;;;5088537;28;20209;-89
2021/05/06 10:59:42;;;;;;;0.30;0.30;;;10.30;99.90;;;;;;5061587;28;20227;-88
2021/05/06 11:02:09;;;;;;;0.30;0.30;;;10.10;99.90;;;;;;5079908;28;20256;-88
2021/05/06 11:04:36;;;;;;;1.07;0.63;;;10.00;99.90;;;;;;5061452;28;20208;-87
2021/05/06 11:07:23;;;;;;;1.07;0.50;;;10.60;99.90;;;;;;5070873;28;20244;-88
2021/05/06 11:09:54;;;;;;;1.27;1.17;;;11.40;99.90;;;;;;5064769;28;20700;-88
2021/05/06 11:12:22;;;;;;;1.43;0.90;;;11.60;99.90;;;;;;5081865;28;20190;-89
2021/05/06 11:15:03;;;;;;;1.10;1.00;;;12.00;99.90;;;;;;5064740;28;20221;-88
2021/05/06 11:17:32;;;;;;;3.37;1.27;;;12.60;99.90;;;;;;5054653;28;20218;-89
2021/05/06 11:20:23;;;;;;;0.60;0.60;;;12.60;99.90;;;;;;5054291;28;20683;-88
2021/05/06 11:22:54;;;;;;;1.57;0.57;;;12.60;99.90;;;;;;5047918;28;20304;-89
2021/05/06 11:25:27;;;;;;;0.40;0.40;;;12.90;99.90;;;;;;5052294;28;20209;-88
2021/05/06 11:27:56;;;;;;;1.90;0.67;;;13.40;99.90;;;;;;5060868;28;20279;-88
2021/05/06 11:30:43;;;;;;;0.63;0.63;;;13.00;99.90;;;;;;5068669;28;20231;-86
2021/05/06 11:33:22;;;;;;;0.97;0.77;;;12.60;99.90;;;;;;5080948;28;20555;-89
2021/05/06 11:36:18;;;;;;;0.50;0.50;;;12.40;99.90;;;;;;5081517;28;20472;-90
2021/05/06 11:38:54;;;;;;;1.13;0.93;;;12.30;99.90;;;;;;5091084;28;20299;-89
2021/05/06 11:41:29;;;;;;;1.00;1.00;;;12.40;99.90;;;;;;5056651;28;20716;-89
2021/05/06 11:44:03;;;;;;;1.17;1.00;;;12.70;99.90;;;;;;5063589;28;20228;-89
2021/05/06 11:46:30;;;;;;;1.00;0.90;;;13.00;99.90;;;;;;5069836;28;20213;-88
2021/05/06 11:48:58;;;;;;;1.17;0.90;;;12.70;99.90;;;;;;5054807;28;20205;-88
2021/05/06 11:51:28;;;;;;;2.07;1.23;;;12.90;99.90;;;;;;5063108;28;20185;-89
2021/05/06 11:54:05;;;;;;;1.60;0.93;;;12.60;99.90;;;;;;5063266;28;20206;-88
2021/05/06 11:56:31;;;;;;;1.67;1.43;;;12.60;99.90;;;;;;5062105;28;20215;-87
2021/05/06 11:58:57;;;;;;;1.53;1.27;;;12.70;99.90;;;;;;5057237;28;20573;-87
2021/05/06 12:01:29;;;;;;;3.23;1.00;;;13.00;99.90;;;;;;5039144;28;20286;-89
2021/05/06 12:03:56;;;;;;;1.60;1.40;;;12.70;99.90;;;;;;5061857;28;20270;-87
2021/05/06 12:06:32;;;;;;;1.20;0.90;;;12.20;99.90;;;;;;5062538;28;20189;-87
2021/05/06 12:08:58;;;;;;;1.97;1.50;;;12.10;99.90;;;;;;5072377;28;20277;-91
2021/05/06 12:11:38;;;;;;;1.27;1.17;;;12.50;99.90;;;;;;5055098;28;20714;-89
2021/05/06 12:14:05;;;;;;;1.20;1.03;;;13.00;99.90;;;;;;5074022;28;20224;-88
2021/05/06 12:16:31;;;;;;;2.33;1.20;;;13.20;99.90;;;;;;5064728;28;20217;-86
2021/05/06 12:19:05;;;;;;;1.63;1.20;;;13.20;99.90;;;;;;5054254;28;20226;-91
2021/05/06 12:21:54;;;;;;;2.20;1.33;;;13.30;99.90;;;;;;5077708;28;20294;-87
2021/05/06 12:24:40;;;;;;;1.70;1.40;;;13.10;99.90;;;;;;5061420;28;20193;-88
2021/05/06 12:27:23;;;;;;;1.43;1.33;;;12.70;99.90;;;;;;5067489;28;21282;-87
2021/05/06 12:29:50;;;;;;;2.30;1.57;;;13.30;99.90;;;;;;5095819;28;20680;-88
2021/05/06 12:32:35;;;;;;;1.20;1.10;;;13.70;99.90;;;;;;5084319;28;20217;-88
2021/05/06 12:35:01;;;;;;;1.37;1.20;;;13.50;99.90;;;;;;5066883;28;20251;-90
2021/05/06 12:37:29;;;;;;;2.23;1.33;;;13.60;99.90;;;;;;5076113;28;20586;-89
2021/05/06 12:39:56;;;;;;;1.17;1.07;;;13.70;99.90;;;;;;5051475;28;20282;-88
2021/05/06 12:42:35;;;;;;;1.87;1.60;;;14.00;99.90;;;;;;5049773;28;20186;-88
2021/05/06 12:45:26;;;;;;;1.97;1.50;;;14.30;99.90;;;;;;5065155;28;20681;-88
2021/05/06 12:47:51;;;;;;;2.17;1.60;;;14.10;99.90;;;;;;5051886;28;20568;-89
2021/05/06 12:50:26;;;;;;;1.93;1.70;;;13.50;99.90;;;;;;5058985;28;20225;-89
2021/05/06 12:52:54;;;;;;;2.37;1.70;;;13.40;99.90;;;;;;5104307;27;20315;-88
2021/05/06 12:55:25;;;;;;;2.40;1.37;;;13.00;99.90;;;;;;5068751;28;20205;-88
2021/05/06 12:58:18;;;;;;;1.20;1.10;;;12.30;99.90;;;;;;5064683;28;20235;-90
2021/05/06 13:00:53;;;;;;;1.97;1.57;;;12.30;99.90;;;;;;5056694;28;20213;-90
2021/05/06 13:03:35;;;;;;;2.07;1.17;;;12.20;99.90;;;;;;5070945;28;20200;-89
2021/05/06 13:06:08;;;;;;;3.60;1.17;;;11.90;99.90;;;;;;5083846;28;20284;-90
2021/05/06 13:08:35;;;;;;;2.40;1.50;;;11.70;99.90;;;;;;5055372;28;20733;-88
2021/05/06 13:11:02;;;;;;;1.57;1.40;;;11.30;99.90;;;;;;5069528;28;20276;-88
2021/05/06 13:13:43;;;;;;;1.30;1.20;;;11.50;99.90;;;;;;5047632;28;20225;-88
2021/05/06 13:16:10;;;;;;;3.30;1.70;;;11.90;99.90;;;;;;5058059;28;20323;-89
2021/05/06 13:18:38;;;;;;;3.97;1.13;;;12.30;99.90;;;;;;5065415;28;20189;-88
2021/05/06 13:21:06;;;;;;;0.60;0.60;;;12.80;99.90;;;;;;5048134;28;20276;-89
2021/05/06 13:23:34;;;;;;;1.20;1.10;;;12.80;99.90;;;;;;5064187;28;20228;-89
2021/05/06 13:26:04;;;;;;;2.43;0.77;;;12.50;99.90;;;;;;5055870;28;20220;-88
2021/05/06 13:28:33;;;;;;;1.20;1.07;;;12.70;99.90;;;;;;5063500;28;20210;-89
2021/05/06 13:31:17;;;;;;;0.90;0.90;;;13.30;99.90;;;;;;5057843;28;20741;-90
2021/05/06 13:33:43;;;;;;;0.60;0.60;;;13.20;99.90;;;;;;5074796;28;20228;-87
2021/05/06 13:36:10;;;;;;;1.17;0.90;;;13.00;99.90;;;;;;5077611;28;20223;-90
2021/05/06 13:39:04;;;;;;;2.57;0.80;;;13.10;99.90;;;;;;5083958;28;20248;-90
2021/05/06 13:41:35;;;;;;;3.43;0.97;;;13.10;99.90;;;;;;5059150;28;20619;-89
2021/05/06 13:44:03;;;;;;;0.97;0.77;;;13.00;99.90;;;;;;5057424;28;20238;-89
2021/05/06 13:46:30;;;;;;;1.10;1.00;;;13.20;99.90;;;;;;5091383;28;20637;-89
2021/05/06 13:48:58;;;;;;;1.47;1.37;;;13.30;99.90;;;;;;5089946;28;20221;-90
2021/05/06 13:51:25;;;;;;;1.43;1.33;;;12.70;99.90;;;;;;5075548;28;20250;-90
2021/05/06 13:53:52;;;;;;;1.10;1.00;;;12.70;99.90;;;;;;5059197;28;20209;-88
2021/05/06 13:56:19;;;;;;;2.87;1.37;;;12.30;99.90;;;;;;5056243;28;20209;-89
2021/05/06 13:58:44;;;;;;;1.20;1.10;;;12.00;99.90;;;;;;5085276;28;20369;-90
2021/05/06 14:01:12;;;;;;;1.87;1.37;;;11.70;99.90;;;;;;5082554;28;20760;-89
2021/05/06 14:03:39;;;;;;;0.83;0.63;;;11.40;99.90;;;;;;5083717;28;20219;-89
2021/05/06 14:06:06;;;;;;;1.07;0.80;;;11.10;99.90;;;;;;5085944;28;20184;-89
2021/05/06 14:08:33;;;;;;;1.47;0.97;;;11.20;99.90;;;;;;5055423;28;20719;-89
2021/05/06 14:10:59;;;;;;;1.70;1.30;;;11.40;99.90;;;;;;5064372;28;20202;-91
2021/05/06 14:13:25;;;;;;;1.50;1.20;;;11.40;99.90;;;;;;5079123;28;20558;-88
2021/05/06 14:15:52;;;;;;;4.03;0.63;;;11.70;99.90;;;;;;5040768;28;20264;-89
2021/05/06 14:18:18;;;;;;;0.90;0.73;;;11.80;99.90;;;;;;5080229;28;20249;-90
2021/05/06 14:20:45;;;;;;;1.67;1.13;;;11.90;99.90;;;;;;5049313;28;20189;-90
2021/05/06 14:23:12;;;;;;;0.87;0.87;;;12.20;99.90;;;;;;5089512;28;20221;-89
2021/05/06 14:25:38;;;;;;;3.00;1.83;;;12.60;99.90;;;;;;5076667;28;20217;-89
2021/05/06 14:28:05;;;;;;;2.30;1.03;;;12.60;99.90;;;;;;5068625;28;20243;-88
2021/05/06 14:30:31;;;;;;;2.10;1.10;;;12.60;99.90;;;;;;5056569;28;20181;-88
2021/05/06 14:32:58;;;;;;;0.87;0.87;;;12.90;99.90;;;;;;5049209;28;20218;-88
2021/05/06 14:35:24;;;;;;;1.17;1.17;;;12.40;99.90;;;;;;5065910;28;20548;-89
2021/05/06 14:37:50;;;;;;;11.10;1.20;;;11.90;99.90;;;;;;5071878;28;20212;-88
2021/05/06 14:40:16;;;;;;;1.43;1.00;;;11.70;99.90;;;;;;5063805;28;20324;-89
2021/05/06 14:42:42;;;;;;;1.07;0.97;;;11.50;99.90;;;;;;5079664;28;20752;-90
2021/05/06 14:45:09;;;;;;;5.67;1.47;;;11.50;99.90;;;;;;5078272;28;20334;-89
2021/05/06 14:47:40;;;;;;;1.63;1.20;;;11.70;99.90;;;;;;5075925;28;20346;-88
2021/05/06 14:50:08;;;;;;;1.67;1.07;;;11.80;99.90;;;;;;5073473;28;20236;-89
2021/05/06 14:52:34;;;;;;;1.50;0.93;;;11.70;99.90;;;;;;5073323;28;20232;-88
2021/05/06 14:55:00;;;;;;;1.20;0.80;;;11.30;99.90;;;;;;5078941;28;20229;-87
2021/05/06 14:57:26;;;;;;;0.70;0.70;;;11.40;99.90;;;;;;5070700;28;20230;-88
2021/05/06 14:59:51;;;;;;;1.53;0.87;;;11.20;99.90;;;;;;5064032;28;20186;-88
2021/05/06 15:02:17;;;;;;;2.47;0.77;;;11.50;99.90;;;;;;5059487;28;20233;-89
2021/05/06 15:04:43;;;;;;;0.50;0.50;;;11.60;99.90;;;;;;5062521;28;20354;-89
2021/05/06 15:07:09;;;;;;;0.87;0.87;;;11.60;99.90;;;;;;5061055;28;20222;-88
2021/05/06 15:09:34;;;;;;;1.07;0.93;;;11.40;99.90;;;;;;5063128;28;20219;-89
2021/05/06 15:12:00;;;;;;;1.47;1.10;;;11.40;99.90;;;;;;5064086;28;20646;-88
2021/05/06 15:14:27;;;;;;;1.40;1.03;;;11.40;99.90;;;;;;5061631;28;20245;-89
2021/05/06 15:16:52;;;;;;;1.30;1.20;;;11.40;99.90;;;;;;5072831;28;20205;-90
2021/05/06 15:19:19;;;;;;;0.57;0.57;;;11.60;99.90;;;;;;5064512;28;20223;-89
2021/05/06 15:21:45;;;;;;;3.40;1.17;;;11.50;99.90;;;;;;5054774;28;20221;-90
2021/05/06 15:24:11;;;;;;;1.40;1.30;;;11.30;99.90;;;;;;5065916;28;20181;-89
2021/05/06 15:26:37;;;;;;;0.60;0.60;;;11.30;99.90;;;;;;5061746;28;20213;-89
2021/05/06 15:29:04;;;;;;;1.17;1.07;;;11.50;99.90;;;;;;5060316;28;20217;-89
2021/05/06 15:31:36;;;;;;;1.33;1.00;;;12.00;99.90;;;;;;5073818;28;20844;-89
2021/05/06 15:34:03;;;;;;;1.00;0.90;;;11.80;99.90;;;;;;5076047;28;20302;-90
2021/05/06 15:36:30;;;;;;;1.67;0.87;;;11.80;99.90;;;;;;5079593;28;20177;-87
2021/05/06 15:38:59;;;;;;;1.83;1.00;;;11.70;99.90;;;;;;5047407;28;20542;-88
2021/05/06 15:41:25;;;;;;;2.00;1.07;;;11.90;99.90;;;;;;5071847;28;20220;-90
2021/05/06 15:43:52;;;;;;;1.00;0.80;;;12.10;99.90;;;;;;5064449;28;20236;-90
2021/05/06 15:46:18;;;;;;;2.03;1.03;;;11.90;99.90;;;;;;5060738;28;20215;-89
2021/05/06 15:48:45;;;;;;;1.97;0.77;;;12.00;99.90;;;;;;5079957;28;20219;-89
2021/05/06 15:51:12;;;;;;;2.83;1.17;;;12.00;99.90;;;;;;5087517;28;20188;-90
2021/05/06 15:53:38;;;;;;;1.23;0.90;;;12.00;99.90;;;;;;5087094;28;20231;-89
2021/05/06 15:56:07;;;;;;;0.93;0.93;;;12.20;99.90;;;;;;5094921;28;20208;-90
2021/05/06 15:58:34;;;;;;;0.70;0.70;;;12.30;99.90;;;;;;5086503;28;20225;-90
2021/05/06 16:01:01;;;;;;;1.97;1.30;;;12.20;99.90;;;;;;5058755;28;20680;-90
2021/05/06 16:03:30;;;;;;;2.03;0.80;;;12.50;99.90;;;;;;5091962;28;20197;-89
2021/05/06 16:05:55;;;;;;;1.60;1.33;;;12.50;99.90;;;;;;5060706;28;20661;-89
2021/05/06 16:08:25;;;;;;;0.80;0.77;;;12.10;99.90;;;;;;5053178;28;20224;-90
2021/05/06 16:10:52;;;;;;;1.07;0.70;;;11.80;99.90;;;;;;5077165;28;20221;-90
2021/05/06 16:13:18;;;;;;;0.77;0.77;;;12.00;99.90;;;;;;5076842;28;20227;-89
2021/05/06 16:15:45;;;;;;;2.57;0.97;;;11.90;99.90;;;;;;5048499;28;20217;-89
2021/05/06 16:18:11;;;;;;;3.80;0.83;;;11.70;99.90;;;;;;5050188;28;20598;-90
2021/05/06 16:20:40;;;;;;;1.90;0.90;;;11.60;99.90;;;;;;5056152;28;20206;-89
2021/05/06 16:23:10;;;;;;;1.03;0.80;;;11.50;99.90;;;;;;5076765;28;20216;-89